sensor_id;sensor_type;location;lat;lon;timestamp;P1;durP1;ratioP1;P2;durP2;ratioP2
6013;SDS011;3035;49.928;8.410;2023-02-26T00:01:30;4.33;;;2.27;;
6013;SDS011;3035;49.928;8.410;2023-02-26T00:04:00;4.37;;;1.50;;
6013;SDS011;3035;49.928;8.410;2023-02-26T00:06:27;4.30;;;1.77;;
6013;SDS011;3035;49.928;8.410;2023-02-26T00:08:55;5.87;;;1.63;;
6013;SDS011;3035;49.928;8.410;2023-02-26T00:11:24;5.17;;;1.70;;
6013;SDS011;3035;49.928;8.410;2023-02-26T00:13:52;1.67;;;1.20;;
6013;SDS011;3035;49.928;8.410;2023-02-26T00:19:05;3.50;;;1.20;;
6013;SDS011;3035;49.928;8.410;2023-02-26T00:21:33;3.50;;;1.70;;
6013;SDS011;3035;49.928;8.410;2023-02-26T00:24:01;1.57;;;1.47;;
6013;SDS011;3035;49.928;8.410;2023-02-26T00:26:29;1.77;;;1.67;;
6013;SDS011;3035;49.928;8.410;2023-02-26T00:28:57;1.60;;;1.50;;
6013;SDS011;3035;49.928;8.410;2023-02-26T00:31:26;3.53;;;1.63;;
6013;SDS011;3035;49.928;8.410;2023-02-26T00:33:55;4.40;;;1.63;;
6013;SDS011;3035;49.928;8.410;2023-02-26T00:36:25;3.00;;;1.60;;
6013;SDS011;3035;49.928;8.410;2023-02-26T00:42:20;1.67;;;1.57;;
6013;SDS011;3035;49.928;8.410;2023-02-26T00:44:50;5.90;;;1.97;;
6013;SDS011;3035;49.928;8.410;2023-02-26T00:47:24;3.20;;;1.40;;
6013;SDS011;3035;49.928;8.410;2023-02-26T00:52:34;3.53;;;1.50;;
6013;SDS011;3035;49.928;8.410;2023-02-26T00:55:03;1.50;;;1.23;;
6013;SDS011;3035;49.928;8.410;2023-02-26T00:57:32;2.50;;;1.60;;
6013;SDS011;3035;49.928;8.410;2023-02-26T01:00:01;3.23;;;1.63;;
6013;SDS011;3035;49.928;8.410;2023-02-26T01:02:29;3.60;;;1.80;;
6013;SDS011;3035;49.928;8.410;2023-02-26T01:04:57;15.87;;;2.17;;
6013;SDS011;3035;49.928;8.410;2023-02-26T01:07:27;1.90;;;1.53;;
6013;SDS011;3035;49.928;8.410;2023-02-26T01:09:55;3.63;;;2.00;;
6013;SDS011;3035;49.928;8.410;2023-02-26T01:12:25;6.20;;;2.03;;
6013;SDS011;3035;49.928;8.410;2023-02-26T01:14:53;4.40;;;1.67;;
6013;SDS011;3035;49.928;8.410;2023-02-26T01:17:22;5.23;;;1.87;;
6013;SDS011;3035;49.928;8.410;2023-02-26T01:20:03;3.10;;;2.00;;
6013;SDS011;3035;49.928;8.410;2023-02-26T01:22:39;2.57;;;1.70;;
6013;SDS011;3035;49.928;8.410;2023-02-26T01:25:07;5.60;;;1.90;;
6013;SDS011;3035;49.928;8.410;2023-02-26T01:27:38;2.40;;;1.50;;
6013;SDS011;3035;49.928;8.410;2023-02-26T01:30:06;1.90;;;1.37;;
6013;SDS011;3035;49.928;8.410;2023-02-26T01:32:42;2.90;;;1.43;;
6013;SDS011;3035;49.928;8.410;2023-02-26T01:37:58;4.83;;;1.90;;
6013;SDS011;3035;49.928;8.410;2023-02-26T01:43:32;5.43;;;1.70;;
6013;SDS011;3035;49.928;8.410;2023-02-26T01:46:04;3.33;;;1.50;;
6013;SDS011;3035;49.928;8.410;2023-02-26T01:48:51;7.40;;;1.73;;
6013;SDS011;3035;49.928;8.410;2023-02-26T01:51:42;5.60;;;1.53;;
6013;SDS011;3035;49.928;8.410;2023-02-26T01:53:47;4.10;;;1.33;;
6013;SDS011;3035;49.928;8.410;2023-02-26T01:56:16;4.67;;;1.53;;
6013;SDS011;3035;49.928;8.410;2023-02-26T01:58:43;9.10;;;1.50;;
6013;SDS011;3035;49.928;8.410;2023-02-26T02:01:12;4.30;;;1.57;;
6013;SDS011;3035;49.928;8.410;2023-02-26T02:03:40;5.73;;;1.30;;
6013;SDS011;3035;49.928;8.410;2023-02-26T02:06:13;4.60;;;1.30;;
6013;SDS011;3035;49.928;8.410;2023-02-26T02:08:42;1.50;;;1.40;;
6013;SDS011;3035;49.928;8.410;2023-02-26T02:11:10;10.37;;;1.80;;
6013;SDS011;3035;49.928;8.410;2023-02-26T02:13:40;6.10;;;1.40;;
6013;SDS011;3035;49.928;8.410;2023-02-26T02:19:11;3.70;;;1.70;;
6013;SDS011;3035;49.928;8.410;2023-02-26T02:24:43;1.63;;;1.40;;
6013;SDS011;3035;49.928;8.410;2023-02-26T02:27:44;1.40;;;1.30;;
6013;SDS011;3035;49.928;8.410;2023-02-26T02:33:15;7.90;;;1.80;;
6013;SDS011;3035;49.928;8.410;2023-02-26T02:35:43;3.40;;;1.70;;
6013;SDS011;3035;49.928;8.410;2023-02-26T02:38:15;8.40;;;1.30;;
6013;SDS011;3035;49.928;8.410;2023-02-26T02:40:47;8.10;;;1.73;;
6013;SDS011;3035;49.928;8.410;2023-02-26T02:43:16;4.67;;;1.40;;
6013;SDS011;3035;49.928;8.410;2023-02-26T02:45:46;2.63;;;1.50;;
6013;SDS011;3035;49.928;8.410;2023-02-26T02:48:19;16.70;;;1.63;;
6013;SDS011;3035;49.928;8.410;2023-02-26T02:50:55;1.83;;;1.40;;
6013;SDS011;3035;49.928;8.410;2023-02-26T02:56:14;2.40;;;1.67;;
6013;SDS011;3035;49.928;8.410;2023-02-26T02:58:43;2.23;;;1.80;;
6013;SDS011;3035;49.928;8.410;2023-02-26T03:01:12;3.80;;;1.40;;
6013;SDS011;3035;49.928;8.410;2023-02-26T03:03:50;1.70;;;1.60;;
6013;SDS011;3035;49.928;8.410;2023-02-26T03:06:25;2.73;;;1.67;;
6013;SDS011;3035;49.928;8.410;2023-02-26T03:08:54;2.30;;;1.07;;
6013;SDS011;3035;49.928;8.410;2023-02-26T03:11:22;1.80;;;1.27;;
6013;SDS011;3035;49.928;8.410;2023-02-26T03:13:50;5.07;;;1.77;;
6013;SDS011;3035;49.928;8.410;2023-02-26T03:16:24;6.77;;;1.80;;
6013;SDS011;3035;49.928;8.410;2023-02-26T03:18:58;2.67;;;1.47;;
6013;SDS011;3035;49.928;8.410;2023-02-26T03:24:25;4.13;;;1.90;;
6013;SDS011;3035;49.928;8.410;2023-02-26T03:26:58;6.00;;;2.27;;
6013;SDS011;3035;49.928;8.410;2023-02-26T03:29:36;1.73;;;1.63;;
6013;SDS011;3035;49.928;8.410;2023-02-26T03:32:06;6.67;;;2.07;;
6013;SDS011;3035;49.928;8.410;2023-02-26T03:34:37;5.03;;;2.43;;
6013;SDS011;3035;49.928;8.410;2023-02-26T03:37:14;2.87;;;1.60;;
6013;SDS011;3035;49.928;8.410;2023-02-26T03:39:45;3.80;;;1.60;;
6013;SDS011;3035;49.928;8.410;2023-02-26T03:45:03;2.63;;;1.30;;
6013;SDS011;3035;49.928;8.410;2023-02-26T03:47:31;4.27;;;1.43;;
6013;SDS011;3035;49.928;8.410;2023-02-26T03:50:06;3.43;;;1.30;;
6013;SDS011;3035;49.928;8.410;2023-02-26T03:52:34;4.40;;;1.37;;
6013;SDS011;3035;49.928;8.410;2023-02-26T03:55:06;1.60;;;1.50;;
6013;SDS011;3035;49.928;8.410;2023-02-26T03:57:50;1.27;;;1.13;;
6013;SDS011;3035;49.928;8.410;2023-02-26T04:00:18;7.57;;;2.17;;
6013;SDS011;3035;49.928;8.410;2023-02-26T04:02:48;5.80;;;1.33;;
6013;SDS011;3035;49.928;8.410;2023-02-26T04:05:17;5.83;;;1.40;;
6013;SDS011;3035;49.928;8.410;2023-02-26T04:07:45;1.90;;;1.13;;
6013;SDS011;3035;49.928;8.410;2023-02-26T04:10:16;1.97;;;1.23;;
6013;SDS011;3035;49.928;8.410;2023-02-26T04:12:43;1.73;;;1.33;;
6013;SDS011;3035;49.928;8.410;2023-02-26T04:15:13;4.23;;;1.27;;
6013;SDS011;3035;49.928;8.410;2023-02-26T04:17:41;3.20;;;1.50;;
6013;SDS011;3035;49.928;8.410;2023-02-26T04:20:09;4.03;;;1.60;;
6013;SDS011;3035;49.928;8.410;2023-02-26T04:22:38;2.23;;;1.37;;
6013;SDS011;3035;49.928;8.410;2023-02-26T04:25:07;2.37;;;1.60;;
6013;SDS011;3035;49.928;8.410;2023-02-26T04:27:35;4.30;;;1.73;;
6013;SDS011;3035;49.928;8.410;2023-02-26T04:30:04;6.13;;;1.40;;
6013;SDS011;3035;49.928;8.410;2023-02-26T04:32:34;2.33;;;1.70;;
6013;SDS011;3035;49.928;8.410;2023-02-26T04:35:02;2.63;;;1.47;;
6013;SDS011;3035;49.928;8.410;2023-02-26T04:37:31;4.77;;;1.77;;
6013;SDS011;3035;49.928;8.410;2023-02-26T04:39:59;2.60;;;1.50;;
6013;SDS011;3035;49.928;8.410;2023-02-26T04:42:28;2.63;;;2.03;;
6013;SDS011;3035;49.928;8.410;2023-02-26T04:44:57;7.67;;;2.30;;
6013;SDS011;3035;49.928;8.410;2023-02-26T04:47:25;3.80;;;1.50;;
6013;SDS011;3035;49.928;8.410;2023-02-26T04:49:54;3.33;;;1.60;;
6013;SDS011;3035;49.928;8.410;2023-02-26T04:52:22;4.03;;;1.47;;
6013;SDS011;3035;49.928;8.410;2023-02-26T04:54:50;6.20;;;1.40;;
6013;SDS011;3035;49.928;8.410;2023-02-26T04:57:19;4.93;;;1.70;;
6013;SDS011;3035;49.928;8.410;2023-02-26T04:59:47;4.10;;;1.70;;
6013;SDS011;3035;49.928;8.410;2023-02-26T05:02:15;2.40;;;1.23;;
6013;SDS011;3035;49.928;8.410;2023-02-26T05:04:44;12.13;;;2.87;;
6013;SDS011;3035;49.928;8.410;2023-02-26T05:07:12;4.60;;;1.70;;
6013;SDS011;3035;49.928;8.410;2023-02-26T05:09:40;4.50;;;2.20;;
6013;SDS011;3035;49.928;8.410;2023-02-26T05:12:09;4.87;;;1.93;;
6013;SDS011;3035;49.928;8.410;2023-02-26T05:14:37;2.90;;;2.23;;
6013;SDS011;3035;49.928;8.410;2023-02-26T05:17:07;3.23;;;1.90;;
6013;SDS011;3035;49.928;8.410;2023-02-26T05:19:35;2.93;;;2.03;;
6013;SDS011;3035;49.928;8.410;2023-02-26T05:22:03;1.43;;;1.33;;
6013;SDS011;3035;49.928;8.410;2023-02-26T05:24:31;5.90;;;2.37;;
6013;SDS011;3035;49.928;8.410;2023-02-26T05:27:00;3.27;;;1.67;;
6013;SDS011;3035;49.928;8.410;2023-02-26T05:29:29;7.03;;;1.67;;
6013;SDS011;3035;49.928;8.410;2023-02-26T05:31:58;4.30;;;1.90;;
6013;SDS011;3035;49.928;8.410;2023-02-26T05:34:27;1.10;;;1.10;;
6013;SDS011;3035;49.928;8.410;2023-02-26T05:36:55;2.80;;;1.67;;
6013;SDS011;3035;49.928;8.410;2023-02-26T05:39:24;4.40;;;2.07;;
6013;SDS011;3035;49.928;8.410;2023-02-26T05:41:52;1.87;;;1.33;;
6013;SDS011;3035;49.928;8.410;2023-02-26T05:44:21;3.23;;;2.03;;
6013;SDS011;3035;49.928;8.410;2023-02-26T05:46:49;4.80;;;1.83;;
6013;SDS011;3035;49.928;8.410;2023-02-26T05:49:17;2.03;;;1.80;;
6013;SDS011;3035;49.928;8.410;2023-02-26T05:51:45;2.90;;;1.50;;
6013;SDS011;3035;49.928;8.410;2023-02-26T05:54:13;4.50;;;1.70;;
6013;SDS011;3035;49.928;8.410;2023-02-26T05:56:41;2.80;;;1.60;;
6013;SDS011;3035;49.928;8.410;2023-02-26T05:59:10;2.57;;;1.50;;
6013;SDS011;3035;49.928;8.410;2023-02-26T06:01:39;2.70;;;1.70;;
6013;SDS011;3035;49.928;8.410;2023-02-26T06:04:07;3.80;;;1.57;;
6013;SDS011;3035;49.928;8.410;2023-02-26T06:06:35;1.77;;;1.53;;
6013;SDS011;3035;49.928;8.410;2023-02-26T06:09:04;3.37;;;1.93;;
6013;SDS011;3035;49.928;8.410;2023-02-26T06:11:33;3.23;;;1.83;;
6013;SDS011;3035;49.928;8.410;2023-02-26T06:14:01;5.43;;;1.83;;
6013;SDS011;3035;49.928;8.410;2023-02-26T06:16:30;7.70;;;1.67;;
6013;SDS011;3035;49.928;8.410;2023-02-26T06:18:58;1.40;;;1.30;;
6013;SDS011;3035;49.928;8.410;2023-02-26T06:21:26;3.40;;;1.50;;
6013;SDS011;3035;49.928;8.410;2023-02-26T06:23:54;3.23;;;1.20;;
6013;SDS011;3035;49.928;8.410;2023-02-26T06:26:22;1.30;;;1.20;;
6013;SDS011;3035;49.928;8.410;2023-02-26T06:28:51;7.03;;;1.90;;
6013;SDS011;3035;49.928;8.410;2023-02-26T06:31:19;2.90;;;1.20;;
6013;SDS011;3035;49.928;8.410;2023-02-26T06:33:47;8.80;;;1.47;;
6013;SDS011;3035;49.928;8.410;2023-02-26T06:36:15;3.37;;;1.50;;
6013;SDS011;3035;49.928;8.410;2023-02-26T06:38:44;3.70;;;1.17;;
6013;SDS011;3035;49.928;8.410;2023-02-26T06:41:13;2.40;;;1.30;;
6013;SDS011;3035;49.928;8.410;2023-02-26T06:43:42;1.17;;;1.07;;
6013;SDS011;3035;49.928;8.410;2023-02-26T06:46:10;1.60;;;1.20;;
6013;SDS011;3035;49.928;8.410;2023-02-26T06:48:39;3.33;;;1.87;;
6013;SDS011;3035;49.928;8.410;2023-02-26T06:51:07;1.63;;;1.00;;
6013;SDS011;3035;49.928;8.410;2023-02-26T06:53:35;5.80;;;1.40;;
6013;SDS011;3035;49.928;8.410;2023-02-26T06:56:04;2.43;;;1.50;;
6013;SDS011;3035;49.928;8.410;2023-02-26T06:58:33;1.50;;;1.30;;
6013;SDS011;3035;49.928;8.410;2023-02-26T07:01:02;1.43;;;1.03;;
6013;SDS011;3035;49.928;8.410;2023-02-26T07:03:30;2.00;;;1.40;;
6013;SDS011;3035;49.928;8.410;2023-02-26T07:05:59;4.80;;;1.87;;
6013;SDS011;3035;49.928;8.410;2023-02-26T07:08:27;1.73;;;1.20;;
6013;SDS011;3035;49.928;8.410;2023-02-26T07:10:56;2.10;;;1.30;;
6013;SDS011;3035;49.928;8.410;2023-02-26T07:13:24;2.60;;;1.20;;
6013;SDS011;3035;49.928;8.410;2023-02-26T07:15:52;7.00;;;1.40;;
6013;SDS011;3035;49.928;8.410;2023-02-26T07:18:21;3.27;;;1.00;;
6013;SDS011;3035;49.928;8.410;2023-02-26T07:20:49;2.47;;;1.73;;
6013;SDS011;3035;49.928;8.410;2023-02-26T07:23:17;3.30;;;1.80;;
6013;SDS011;3035;49.928;8.410;2023-02-26T07:25:47;3.47;;;2.10;;
6013;SDS011;3035;49.928;8.410;2023-02-26T07:28:13;3.20;;;2.40;;
6013;SDS011;3035;49.928;8.410;2023-02-26T07:30:42;2.00;;;1.80;;
6013;SDS011;3035;49.928;8.410;2023-02-26T07:33:10;2.47;;;1.40;;
6013;SDS011;3035;49.928;8.410;2023-02-26T07:35:38;2.60;;;1.20;;
6013;SDS011;3035;49.928;8.410;2023-02-26T07:38:07;3.80;;;1.60;;
6013;SDS011;3035;49.928;8.410;2023-02-26T07:40:36;1.30;;;1.20;;
6013;SDS011;3035;49.928;8.410;2023-02-26T07:43:04;3.70;;;1.37;;
6013;SDS011;3035;49.928;8.410;2023-02-26T07:45:32;1.47;;;1.30;;
6013;SDS011;3035;49.928;8.410;2023-02-26T07:48:01;2.00;;;1.77;;
6013;SDS011;3035;49.928;8.410;2023-02-26T07:50:29;7.00;;;1.80;;
6013;SDS011;3035;49.928;8.410;2023-02-26T07:52:58;4.87;;;1.57;;
6013;SDS011;3035;49.928;8.410;2023-02-26T07:55:26;3.10;;;1.50;;
6013;SDS011;3035;49.928;8.410;2023-02-26T07:57:55;3.87;;;1.60;;
6013;SDS011;3035;49.928;8.410;2023-02-26T08:00:24;5.40;;;1.43;;
6013;SDS011;3035;49.928;8.410;2023-02-26T08:02:53;1.63;;;1.23;;
6013;SDS011;3035;49.928;8.410;2023-02-26T08:05:21;3.50;;;1.67;;
6013;SDS011;3035;49.928;8.410;2023-02-26T08:07:53;3.03;;;1.30;;
6013;SDS011;3035;49.928;8.410;2023-02-26T08:10:22;1.30;;;1.20;;
6013;SDS011;3035;49.928;8.410;2023-02-26T08:12:51;3.90;;;1.60;;
6013;SDS011;3035;49.928;8.410;2023-02-26T08:15:20;3.93;;;1.57;;
6013;SDS011;3035;49.928;8.410;2023-02-26T08:17:51;1.90;;;1.30;;
6013;SDS011;3035;49.928;8.410;2023-02-26T08:20:19;3.30;;;1.77;;
6013;SDS011;3035;49.928;8.410;2023-02-26T08:22:48;2.50;;;1.30;;
6013;SDS011;3035;49.928;8.410;2023-02-26T08:25:16;2.47;;;1.20;;
6013;SDS011;3035;49.928;8.410;2023-02-26T08:27:44;4.03;;;1.47;;
6013;SDS011;3035;49.928;8.410;2023-02-26T08:30:13;2.50;;;1.47;;
6013;SDS011;3035;49.928;8.410;2023-02-26T08:32:41;1.27;;;1.17;;
6013;SDS011;3035;49.928;8.410;2023-02-26T08:35:10;1.33;;;1.23;;
6013;SDS011;3035;49.928;8.410;2023-02-26T08:37:38;2.10;;;1.07;;
6013;SDS011;3035;49.928;8.410;2023-02-26T08:40:08;6.67;;;1.20;;
6013;SDS011;3035;49.928;8.410;2023-02-26T08:42:37;3.80;;;1.10;;
6013;SDS011;3035;49.928;8.410;2023-02-26T08:45:07;1.40;;;1.30;;
6013;SDS011;3035;49.928;8.410;2023-02-26T08:47:36;3.33;;;1.00;;
6013;SDS011;3035;49.928;8.410;2023-02-26T08:50:04;1.73;;;1.20;;
6013;SDS011;3035;49.928;8.410;2023-02-26T08:52:33;4.20;;;1.50;;
6013;SDS011;3035;49.928;8.410;2023-02-26T08:55:01;4.03;;;1.07;;
6013;SDS011;3035;49.928;8.410;2023-02-26T08:57:30;3.23;;;1.10;;
6013;SDS011;3035;49.928;8.410;2023-02-26T08:59:59;1.10;;;1.00;;
6013;SDS011;3035;49.928;8.410;2023-02-26T09:02:27;2.10;;;1.00;;
6013;SDS011;3035;49.928;8.410;2023-02-26T09:04:55;1.27;;;1.17;;
6013;SDS011;3035;49.928;8.410;2023-02-26T09:07:24;1.93;;;1.20;;
6013;SDS011;3035;49.928;8.410;2023-02-26T09:09:52;3.33;;;1.30;;
6013;SDS011;3035;49.928;8.410;2023-02-26T09:12:20;2.20;;;1.17;;
6013;SDS011;3035;49.928;8.410;2023-02-26T09:14:49;2.80;;;1.13;;
6013;SDS011;3035;49.928;8.410;2023-02-26T09:17:18;0.80;;;0.80;;
6013;SDS011;3035;49.928;8.410;2023-02-26T09:19:46;6.67;;;1.47;;
6013;SDS011;3035;49.928;8.410;2023-02-26T09:22:16;5.13;;;1.23;;
6013;SDS011;3035;49.928;8.410;2023-02-26T09:24:44;1.87;;;1.23;;
6013;SDS011;3035;49.928;8.410;2023-02-26T09:27:12;1.37;;;0.87;;
6013;SDS011;3035;49.928;8.410;2023-02-26T09:29:41;6.00;;;1.10;;
6013;SDS011;3035;49.928;8.410;2023-02-26T09:32:09;0.90;;;0.90;;
6013;SDS011;3035;49.928;8.410;2023-02-26T09:34:37;1.97;;;1.20;;
6013;SDS011;3035;49.928;8.410;2023-02-26T09:37:06;5.23;;;1.20;;
6013;SDS011;3035;49.928;8.410;2023-02-26T09:39:34;1.00;;;1.00;;
6013;SDS011;3035;49.928;8.410;2023-02-26T09:42:12;1.23;;;1.00;;
6013;SDS011;3035;49.928;8.410;2023-02-26T09:44:49;2.20;;;1.27;;
6013;SDS011;3035;49.928;8.410;2023-02-26T09:47:23;2.90;;;1.50;;
6013;SDS011;3035;49.928;8.410;2023-02-26T09:50:00;3.40;;;1.73;;
6013;SDS011;3035;49.928;8.410;2023-02-26T09:52:33;4.60;;;1.27;;
6013;SDS011;3035;49.928;8.410;2023-02-26T09:55:03;1.87;;;1.10;;
6013;SDS011;3035;49.928;8.410;2023-02-26T09:57:32;1.73;;;1.30;;
6013;SDS011;3035;49.928;8.410;2023-02-26T10:00:06;6.07;;;1.20;;
6013;SDS011;3035;49.928;8.410;2023-02-26T10:02:54;3.00;;;1.80;;
6013;SDS011;3035;49.928;8.410;2023-02-26T10:05:38;1.87;;;1.30;;
6013;SDS011;3035;49.928;8.410;2023-02-26T10:10:49;2.73;;;1.20;;
6013;SDS011;3035;49.928;8.410;2023-02-26T10:13:22;2.50;;;1.17;;
6013;SDS011;3035;49.928;8.410;2023-02-26T10:16:12;7.73;;;1.30;;
6013;SDS011;3035;49.928;8.410;2023-02-26T10:18:44;1.20;;;1.07;;
6013;SDS011;3035;49.928;8.410;2023-02-26T10:21:16;4.30;;;1.20;;
6013;SDS011;3035;49.928;8.410;2023-02-26T10:23:53;4.13;;;1.10;;
6013;SDS011;3035;49.928;8.410;2023-02-26T10:26:25;2.80;;;1.50;;
6013;SDS011;3035;49.928;8.410;2023-02-26T10:34:40;1.93;;;1.30;;
6013;SDS011;3035;49.928;8.410;2023-02-26T10:42:48;3.10;;;1.43;;
6013;SDS011;3035;49.928;8.410;2023-02-26T10:51:12;1.40;;;1.30;;
6013;SDS011;3035;49.928;8.410;2023-02-26T10:53:42;1.33;;;1.17;;
6013;SDS011;3035;49.928;8.410;2023-02-26T10:56:14;2.80;;;1.27;;
6013;SDS011;3035;49.928;8.410;2023-02-26T10:58:44;2.40;;;1.37;;
6013;SDS011;3035;49.928;8.410;2023-02-26T11:01:15;1.90;;;1.10;;
6013;SDS011;3035;49.928;8.410;2023-02-26T11:03:43;1.40;;;1.30;;
6013;SDS011;3035;49.928;8.410;2023-02-26T11:06:13;6.77;;;1.80;;
6013;SDS011;3035;49.928;8.410;2023-02-26T11:08:39;2.93;;;1.27;;
6013;SDS011;3035;49.928;8.410;2023-02-26T11:11:08;1.50;;;1.20;;
6013;SDS011;3035;49.928;8.410;2023-02-26T11:13:37;1.97;;;1.30;;
6013;SDS011;3035;49.928;8.410;2023-02-26T11:16:08;5.70;;;0.87;;
6013;SDS011;3035;49.928;8.410;2023-02-26T11:18:40;0.80;;;0.80;;
6013;SDS011;3035;49.928;8.410;2023-02-26T11:21:07;1.13;;;0.90;;
6013;SDS011;3035;49.928;8.410;2023-02-26T11:23:35;3.47;;;1.43;;
6013;SDS011;3035;49.928;8.410;2023-02-26T11:26:05;2.00;;;1.20;;
6013;SDS011;3035;49.928;8.410;2023-02-26T11:28:36;1.10;;;1.00;;
6013;SDS011;3035;49.928;8.410;2023-02-26T11:31:05;3.10;;;1.47;;
6013;SDS011;3035;49.928;8.410;2023-02-26T11:33:36;1.20;;;1.10;;
6013;SDS011;3035;49.928;8.410;2023-02-26T11:36:06;3.07;;;1.10;;
6013;SDS011;3035;49.928;8.410;2023-02-26T11:38:39;1.90;;;1.00;;
6013;SDS011;3035;49.928;8.410;2023-02-26T11:41:07;1.87;;;1.67;;
6013;SDS011;3035;49.928;8.410;2023-02-26T11:43:38;1.53;;;1.10;;
6013;SDS011;3035;49.928;8.410;2023-02-26T11:46:08;1.83;;;1.17;;
6013;SDS011;3035;49.928;8.410;2023-02-26T11:48:39;1.43;;;1.20;;
6013;SDS011;3035;49.928;8.410;2023-02-26T11:51:19;1.53;;;0.97;;
6013;SDS011;3035;49.928;8.410;2023-02-26T11:53:50;1.20;;;0.97;;
6013;SDS011;3035;49.928;8.410;2023-02-26T11:56:26;1.80;;;1.20;;
6013;SDS011;3035;49.928;8.410;2023-02-26T11:59:18;1.77;;;1.00;;
6013;SDS011;3035;49.928;8.410;2023-02-26T12:01:46;0.90;;;0.90;;
6013;SDS011;3035;49.928;8.410;2023-02-26T12:04:18;1.00;;;0.90;;
6013;SDS011;3035;49.928;8.410;2023-02-26T12:06:47;1.43;;;0.90;;
6013;SDS011;3035;49.928;8.410;2023-02-26T12:09:15;3.50;;;1.33;;
6013;SDS011;3035;49.928;8.410;2023-02-26T12:11:56;3.83;;;1.17;;
6013;SDS011;3035;49.928;8.410;2023-02-26T12:14:28;2.57;;;1.20;;
6013;SDS011;3035;49.928;8.410;2023-02-26T12:28:38;1.47;;;0.90;;
6013;SDS011;3035;49.928;8.410;2023-02-26T12:31:14;1.77;;;1.07;;
6013;SDS011;3035;49.928;8.410;2023-02-26T12:34:06;2.93;;;0.90;;
6013;SDS011;3035;49.928;8.410;2023-02-26T12:36:41;1.33;;;0.80;;
6013;SDS011;3035;49.928;8.410;2023-02-26T12:39:31;1.67;;;0.90;;
6013;SDS011;3035;49.928;8.410;2023-02-26T12:50:58;0.87;;;0.87;;
6013;SDS011;3035;49.928;8.410;2023-02-26T12:56:58;0.80;;;0.80;;
6013;SDS011;3035;49.928;8.410;2023-02-26T13:02:27;0.83;;;0.80;;
6013;SDS011;3035;49.928;8.410;2023-02-26T13:07:46;1.00;;;0.70;;
6013;SDS011;3035;49.928;8.410;2023-02-26T13:13:27;1.20;;;0.80;;
6013;SDS011;3035;49.928;8.410;2023-02-26T13:16:00;1.40;;;0.70;;
6013;SDS011;3035;49.928;8.410;2023-02-26T13:18:52;1.37;;;0.70;;
6013;SDS011;3035;49.928;8.410;2023-02-26T13:21:26;0.60;;;0.60;;
6013;SDS011;3035;49.928;8.410;2023-02-26T13:23:59;3.03;;;1.00;;
6013;SDS011;3035;49.928;8.410;2023-02-26T13:26:35;1.00;;;0.80;;
6013;SDS011;3035;49.928;8.410;2023-02-26T13:29:07;3.27;;;0.73;;
6013;SDS011;3035;49.928;8.410;2023-02-26T13:31:44;1.40;;;0.67;;
6013;SDS011;3035;49.928;8.410;2023-02-26T13:34:25;0.90;;;0.60;;
6013;SDS011;3035;49.928;8.410;2023-02-26T13:36:50;1.13;;;0.80;;
6013;SDS011;3035;49.928;8.410;2023-02-26T13:39:31;1.13;;;1.03;;
6013;SDS011;3035;49.928;8.410;2023-02-26T13:42:05;1.83;;;1.00;;
6013;SDS011;3035;49.928;8.410;2023-02-26T13:44:47;4.00;;;1.10;;
6013;SDS011;3035;49.928;8.410;2023-02-26T13:47:15;3.23;;;1.33;;
6013;SDS011;3035;49.928;8.410;2023-02-26T13:49:49;1.50;;;1.03;;
6013;SDS011;3035;49.928;8.410;2023-02-26T13:52:34;2.27;;;0.90;;
6013;SDS011;3035;49.928;8.410;2023-02-26T13:55:03;2.37;;;1.67;;
6013;SDS011;3035;49.928;8.410;2023-02-26T13:57:33;2.90;;;1.10;;
6013;SDS011;3035;49.928;8.410;2023-02-26T14:00:08;1.87;;;0.80;;
6013;SDS011;3035;49.928;8.410;2023-02-26T14:02:43;0.90;;;0.90;;
6013;SDS011;3035;49.928;8.410;2023-02-26T14:10:42;1.10;;;0.90;;
6013;SDS011;3035;49.928;8.410;2023-02-26T14:13:10;1.13;;;0.80;;
6013;SDS011;3035;49.928;8.410;2023-02-26T14:16:20;0.73;;;0.70;;
6013;SDS011;3035;49.928;8.410;2023-02-26T14:18:51;3.67;;;0.70;;
6013;SDS011;3035;49.928;8.410;2023-02-26T14:24:18;0.70;;;0.70;;
6013;SDS011;3035;49.928;8.410;2023-02-26T14:26:46;0.77;;;0.63;;
6013;SDS011;3035;49.928;8.410;2023-02-26T14:29:15;1.00;;;0.80;;
6013;SDS011;3035;49.928;8.410;2023-02-26T14:31:52;2.93;;;0.80;;
6013;SDS011;3035;49.928;8.410;2023-02-26T14:34:21;3.33;;;0.90;;
6013;SDS011;3035;49.928;8.410;2023-02-26T14:36:51;1.53;;;0.80;;
6013;SDS011;3035;49.928;8.410;2023-02-26T14:39:22;2.00;;;1.00;;
6013;SDS011;3035;49.928;8.410;2023-02-26T14:41:56;2.27;;;0.80;;
6013;SDS011;3035;49.928;8.410;2023-02-26T14:44:26;1.87;;;1.07;;
6013;SDS011;3035;49.928;8.410;2023-02-26T14:46:53;1.00;;;0.70;;
6013;SDS011;3035;49.928;8.410;2023-02-26T14:49:25;1.43;;;0.90;;
6013;SDS011;3035;49.928;8.410;2023-02-26T14:52:05;2.83;;;1.17;;
6013;SDS011;3035;49.928;8.410;2023-02-26T14:54:42;2.10;;;0.80;;
6013;SDS011;3035;49.928;8.410;2023-02-26T15:08:56;0.80;;;0.80;;
6013;SDS011;3035;49.928;8.410;2023-02-26T15:14:47;1.67;;;1.07;;
6013;SDS011;3035;49.928;8.410;2023-02-26T15:17:25;0.90;;;0.90;;
6013;SDS011;3035;49.928;8.410;2023-02-26T15:19:55;1.57;;;0.80;;
6013;SDS011;3035;49.928;8.410;2023-02-26T15:25:27;1.50;;;1.30;;
6013;SDS011;3035;49.928;8.410;2023-02-26T15:27:52;1.43;;;1.00;;
6013;SDS011;3035;49.928;8.410;2023-02-26T15:30:22;1.50;;;1.00;;
6013;SDS011;3035;49.928;8.410;2023-02-26T15:32:54;1.13;;;0.70;;
6013;SDS011;3035;49.928;8.410;2023-02-26T15:35:18;2.20;;;1.00;;
6013;SDS011;3035;49.928;8.410;2023-02-26T15:37:47;2.97;;;1.17;;
6013;SDS011;3035;49.928;8.410;2023-02-26T15:40:16;1.77;;;1.07;;
6013;SDS011;3035;49.928;8.410;2023-02-26T15:42:47;2.73;;;1.27;;
6013;SDS011;3035;49.928;8.410;2023-02-26T15:45:17;2.13;;;0.80;;
6013;SDS011;3035;49.928;8.410;2023-02-26T15:47:58;1.10;;;1.00;;
6013;SDS011;3035;49.928;8.410;2023-02-26T15:50:27;0.93;;;0.83;;
6013;SDS011;3035;49.928;8.410;2023-02-26T15:52:57;0.90;;;0.73;;
6013;SDS011;3035;49.928;8.410;2023-02-26T15:55:25;0.77;;;0.77;;
6013;SDS011;3035;49.928;8.410;2023-02-26T15:57:54;0.93;;;0.83;;
6013;SDS011;3035;49.928;8.410;2023-02-26T16:00:22;1.33;;;0.70;;
6013;SDS011;3035;49.928;8.410;2023-02-26T16:02:52;1.13;;;0.97;;
6013;SDS011;3035;49.928;8.410;2023-02-26T16:05:20;1.13;;;1.03;;
6013;SDS011;3035;49.928;8.410;2023-02-26T16:07:48;0.80;;;0.73;;
6013;SDS011;3035;49.928;8.410;2023-02-26T16:10:25;3.30;;;1.00;;
6013;SDS011;3035;49.928;8.410;2023-02-26T16:13:01;1.67;;;0.87;;
6013;SDS011;3035;49.928;8.410;2023-02-26T16:15:31;1.10;;;0.90;;
6013;SDS011;3035;49.928;8.410;2023-02-26T16:18:01;1.27;;;1.03;;
6013;SDS011;3035;49.928;8.410;2023-02-26T16:20:29;1.77;;;0.90;;
6013;SDS011;3035;49.928;8.410;2023-02-26T16:22:58;0.83;;;0.83;;
6013;SDS011;3035;49.928;8.410;2023-02-26T16:25:29;2.20;;;1.10;;
6013;SDS011;3035;49.928;8.410;2023-02-26T16:28:12;1.23;;;0.80;;
6013;SDS011;3035;49.928;8.410;2023-02-26T16:30:42;0.70;;;0.70;;
6013;SDS011;3035;49.928;8.410;2023-02-26T16:33:11;1.10;;;1.00;;
6013;SDS011;3035;49.928;8.410;2023-02-26T16:35:47;1.10;;;0.90;;
6013;SDS011;3035;49.928;8.410;2023-02-26T16:38:18;0.70;;;0.70;;
6013;SDS011;3035;49.928;8.410;2023-02-26T16:40:45;0.93;;;0.87;;
6013;SDS011;3035;49.928;8.410;2023-02-26T16:43:29;3.30;;;1.10;;
6013;SDS011;3035;49.928;8.410;2023-02-26T16:45:58;0.60;;;0.60;;
6013;SDS011;3035;49.928;8.410;2023-02-26T16:48:28;1.73;;;0.80;;
6013;SDS011;3035;49.928;8.410;2023-02-26T16:50:58;0.80;;;0.80;;
6013;SDS011;3035;49.928;8.410;2023-02-26T16:53:31;1.70;;;0.90;;
6013;SDS011;3035;49.928;8.410;2023-02-26T16:55:58;1.70;;;1.20;;
6013;SDS011;3035;49.928;8.410;2023-02-26T16:58:28;1.70;;;1.10;;
6013;SDS011;3035;49.928;8.410;2023-02-26T17:01:07;1.20;;;1.10;;
6013;SDS011;3035;49.928;8.410;2023-02-26T17:03:36;2.13;;;1.00;;
6013;SDS011;3035;49.928;8.410;2023-02-26T17:06:06;1.20;;;1.00;;
6013;SDS011;3035;49.928;8.410;2023-02-26T17:08:41;2.30;;;0.90;;
6013;SDS011;3035;49.928;8.410;2023-02-26T17:11:26;2.43;;;1.23;;
6013;SDS011;3035;49.928;8.410;2023-02-26T17:14:12;1.23;;;0.80;;
6013;SDS011;3035;49.928;8.410;2023-02-26T17:16:44;2.83;;;1.30;;
6013;SDS011;3035;49.928;8.410;2023-02-26T17:19:12;1.90;;;1.10;;
6013;SDS011;3035;49.928;8.410;2023-02-26T17:21:45;1.30;;;1.00;;
6013;SDS011;3035;49.928;8.410;2023-02-26T17:24:16;1.93;;;1.23;;
6013;SDS011;3035;49.928;8.410;2023-02-26T17:26:45;3.50;;;1.50;;
6013;SDS011;3035;49.928;8.410;2023-02-26T17:29:18;1.87;;;1.10;;